Time;durP1;ratioP1;P1;durP2;ratioP2;P2;SDS_P1;SDS_P2;PMS_P1;PMS_P2;Temp;Humidity;BMP_temperature;BMP_pressure;BME280_temperature;BME280_humidity;BME280_pressure;Samples;Min_cycle;Max_cycle;Signal;HPM_P1;HPM_P2
2021/12/05 00:22:57;;;;;;;4.13;2.28;;;;;;;2.72;85.88;96875.72;4187039;27;20472;-72
2021/12/05 00:25:00;;;;;;;4.20;2.70;;;;;;;2.68;86.21;96883.06;4209098;27;20028;-71
2021/12/05 00:27:10;;;;;;;5.28;3.88;;;;;;;2.65;86.76;96897.47;4213571;27;20411;-72
2021/12/05 00:29:18;;;;;;;4.25;2.92;;;;;;;2.59;87.28;96889.94;4207695;27;20122;-71
2021/12/05 00:31:38;;;;;;;5.13;2.65;;;;;;;2.59;86.84;96901.66;4211122;27;20036;-72
2021/12/05 00:34:07;;;;;;;4.53;3.47;;;;;;;2.58;87.57;96897.34;4216090;27;20243;-71
2021/12/05 00:41:40;;;;;;;3.80;2.58;;;;;;;2.73;85.41;96892.88;4210794;27;20181;-71
2021/12/05 01:07:40;;;;;;;6.75;3.72;;;;;;;2.47;85.96;96918.19;4176622;28;20056;-71
2021/12/05 01:14:28;;;;;;;10.63;4.32;;;;;;;2.31;86.70;96929.19;4210950;27;20023;-72
2021/12/05 01:16:30;;;;;;;5.65;3.63;;;;;;;2.19;87.44;96935.63;4207559;27;20039;-71
2021/12/05 01:18:31;;;;;;;8.82;4.00;;;;;;;2.15;87.49;96932.06;4208714;27;20028;-71
2021/12/05 01:20:35;;;;;;;7.78;3.55;;;;;;;2.08;88.38;96937.38;4209202;27;20132;-72
2021/12/05 01:22:42;;;;;;;6.10;3.72;;;;;;;2.03;88.76;96932.19;4210839;27;20044;-71
2021/12/05 01:25:02;;;;;;;4.82;4.00;;;;;;;2.10;88.37;96928.81;4206077;27;20040;-71
2021/12/05 01:36:12;;;;;;;11.88;4.20;;;;;;;1.91;88.59;96940.53;4210784;27;20073;-71
2021/12/05 01:38:26;;;;;;;7.13;3.83;;;;;;;1.86;89.23;96949.78;4208484;27;20352;-71
2021/12/05 02:07:45;;;;;;;6.38;3.78;;;;;;;1.69;90.08;96964.59;4209058;27;20048;-71
2021/12/05 02:12:37;;;;;;;5.77;3.40;;;;;;;1.72;90.53;96989.56;4208036;28;20055;-71
2021/12/05 02:29:32;;;;;;;5.13;3.40;;;;;;;1.68;91.45;97003.13;4205615;28;20151;-71
2021/12/05 02:31:12;;;;;;;3.78;3.35;;;;;;;1.86;91.63;97025.34;4208507;28;20055;-71
2021/12/05 02:35:31;;;;;;;4.05;3.03;;;;;;;1.92;91.24;97035.63;4207974;28;20036;-72
2021/12/05 02:40:46;;;;;;;11.57;4.05;;;;;;;1.98;90.69;97033.38;4202723;27;20083;-72
2021/12/05 02:42:09;;;;;;;6.80;3.45;;;;;;;2.01;90.89;97046.34;4195864;27;20059;-72
2021/12/05 02:44:15;;;;;;;5.90;3.38;;;;;;;1.99;91.19;97051.38;4207478;28;20035;-72
2021/12/05 02:46:20;;;;;;;6.88;3.85;;;;;;;1.98;91.23;97060.66;4205650;28;20071;-71
2021/12/05 02:48:22;;;;;;;5.82;4.38;;;;;;;1.98;91.80;97071.56;4209647;27;22862;-72
2021/12/05 02:50:27;;;;;;;6.18;3.35;;;;;;;1.98;91.37;97069.63;4205395;28;20036;-71
2021/12/05 02:52:32;;;;;;;6.93;3.80;;;;;;;2.02;91.37;97075.19;4210642;27;20134;-71
2021/12/05 02:54:39;;;;;;;6.20;3.15;;;;;;;2.07;90.74;97085.84;4207961;27;20070;-71
2021/12/05 02:56:43;;;;;;;5.93;2.85;;;;;;;2.08;90.62;97092.09;4206888;27;20113;-72
2021/12/05 02:58:49;;;;;;;5.25;3.42;;;;;;;2.11;90.74;97089.41;4210416;27;20036;-72
2021/12/05 03:02:53;;;;;;;5.47;2.80;;;;;;;2.17;89.97;97092.66;4207641;27;20036;-72
2021/12/05 03:04:58;;;;;;;7.45;2.83;;;;;;;2.18;89.69;97092.31;4207719;27;20054;-71
2021/12/05 03:07:05;;;;;;;6.85;2.75;;;;;;;2.16;89.12;97078.25;4215711;27;20468;-71
2021/12/05 03:09:12;;;;;;;5.70;3.20;;;;;;;2.21;88.72;97082.63;4210481;27;20440;-72
2021/12/05 03:11:13;;;;;;;4.93;2.63;;;;;;;2.24;88.17;97079.19;4208836;27;20047;-71
2021/12/05 03:13:14;;;;;;;5.63;2.92;;;;;;;2.22;88.81;97086.91;4215056;27;20338;-72
2021/12/05 03:15:18;;;;;;;7.43;2.67;;;;;;;2.22;89.13;97078.72;4210819;27;20548;-71
2021/12/05 03:17:18;;;;;;;4.63;3.05;;;;;;;2.18;89.35;97086.06;4214201;27;20134;-72
2021/12/05 03:19:19;;;;;;;7.18;2.78;;;;;;;2.18;89.16;97088.78;4207281;27;20071;-72
2021/12/05 03:21:20;;;;;;;7.97;3.03;;;;;;;2.14;89.07;97083.25;4209513;27;20592;-72
2021/12/05 03:23:20;;;;;;;7.07;2.50;;;;;;;2.15;88.79;97081.31;4214445;27;20044;-72
2021/12/05 03:25:21;;;;;;;5.13;2.55;;;;;;;2.16;88.62;97082.91;4208002;27;20033;-72
2021/12/05 03:27:21;;;;;;;5.50;2.80;;;;;;;2.14;89.43;97087.91;4210749;27;20343;-71
2021/12/05 03:29:23;;;;;;;3.75;2.10;;;;;;;2.14;89.27;97094.16;4211012;27;20410;-71
2021/12/05 03:31:26;;;;;;;5.60;2.33;;;;;;;2.09;89.46;97086.25;4208277;27;20028;-71
2021/12/05 03:33:26;;;;;;;5.50;2.53;;;;;;;2.10;89.05;97084.31;4212105;27;20121;-72
2021/12/05 03:35:28;;;;;;;5.85;2.67;;;;;;;2.12;89.19;97084.75;4209816;27;20048;-72
2021/12/05 03:37:29;;;;;;;4.53;2.83;;;;;;;2.07;89.29;97085.03;4207177;27;20041;-71
2021/12/05 03:39:30;;;;;;;5.22;2.80;;;;;;;2.10;88.85;97087.84;4207569;27;20051;-71
2021/12/05 03:41:31;;;;;;;6.28;2.85;;;;;;;2.07;89.11;97091.28;4208922;27;20440;-71
2021/12/05 03:43:32;;;;;;;7.15;2.60;;;;;;;2.08;88.99;97084.69;4207055;27;20133;-71
2021/12/05 03:45:41;;;;;;;4.43;2.83;;;;;;;2.09;88.66;97082.75;4207929;27;20040;-71
2021/12/05 03:47:41;;;;;;;5.05;3.38;;;;;;;2.09;89.02;97089.00;4211752;27;20048;-72
2021/12/05 03:49:42;;;;;;;5.22;2.25;;;;;;;2.08;88.38;97087.41;4208187;27;20048;-71
2021/12/05 03:51:48;;;;;;;4.30;2.83;;;;;;;2.11;87.90;97085.91;4209467;27;20378;-71
2021/12/05 03:53:50;;;;;;;5.00;2.60;;;;;;;2.11;87.88;97094.09;4210367;27;20036;-71
2021/12/05 03:55:52;;;;;;;8.40;2.85;;;;;;;2.07;88.22;97095.94;4208694;27;20044;-71
2021/12/05 03:57:53;;;;;;;4.57;3.00;;;;;;;2.05;87.84;97087.31;4213412;27;20477;-71
2021/12/05 03:59:53;;;;;;;4.50;2.88;;;;;;;2.00;87.71;97087.63;4207604;27;20032;-71
2021/12/05 04:02:03;;;;;;;4.93;2.80;;;;;;;2.04;87.58;97092.00;4208629;27;20050;-72
2021/12/05 04:04:04;;;;;;;7.15;3.00;;;;;;;2.01;87.76;97095.44;4209693;27;20068;-72
2021/12/05 04:06:08;;;;;;;4.60;2.65;;;;;;;1.95;88.55;97094.91;4208187;27;20030;-71
2021/12/05 04:08:12;;;;;;;2.72;2.50;;;;;;;1.95;88.46;97097.63;4208593;27;20083;-72
2021/12/05 04:10:13;;;;;;;4.65;2.65;;;;;;;1.94;88.36;97101.50;4207586;27;20044;-71
2021/12/05 04:12:15;;;;;;;7.47;2.50;;;;;;;2.00;86.94;97104.78;4212821;27;20511;-72
2021/12/05 04:14:17;;;;;;;6.95;2.90;;;;;;;1.98;87.66;97107.84;4208274;27;20099;-72
2021/12/05 04:16:18;;;;;;;4.15;2.72;;;;;;;1.97;87.09;97089.88;4207715;27;20027;-72
2021/12/05 04:18:19;;;;;;;5.05;2.60;;;;;;;1.99;87.19;97097.75;4208534;27;20030;-72
2021/12/05 04:20:21;;;;;;;6.55;2.60;;;;;;;1.98;87.66;97093.41;4208846;27;20024;-71
2021/12/05 04:22:21;;;;;;;3.25;2.33;;;;;;;1.92;87.47;97087.44;4206940;27;20097;-71
2021/12/05 04:24:22;;;;;;;7.05;3.25;;;;;;;1.92;87.17;97094.84;4208082;27;20468;-71
2021/12/05 04:26:23;;;;;;;3.60;2.80;;;;;;;1.91;87.29;97085.09;4206449;27;20170;-72
2021/12/05 04:28:24;;;;;;;6.10;2.70;;;;;;;1.89;86.96;97081.91;4207667;27;20472;-72
2021/12/05 04:30:25;;;;;;;5.70;2.88;;;;;;;1.94;86.38;97089.81;4207905;27;20189;-72
2021/12/05 04:32:26;;;;;;;4.55;2.55;;;;;;;1.88;86.76;97083.84;4206137;28;20029;-72
2021/12/05 04:34:26;;;;;;;4.75;2.97;;;;;;;1.91;86.48;97082.34;4207546;27;20105;-71
2021/12/05 04:36:27;;;;;;;4.80;2.53;;;;;;;1.82;87.18;97090.72;4208300;27;20059;-72
2021/12/05 04:38:27;;;;;;;5.80;3.15;;;;;;;1.83;86.67;97084.13;4207809;27;20036;-71
2021/12/05 04:40:28;;;;;;;5.15;2.55;;;;;;;1.80;87.22;97084.03;4204641;27;20043;-71
2021/12/05 04:42:28;;;;;;;4.03;2.80;;;;;;;1.73;87.84;97092.03;4209431;27;20114;-71
2021/12/05 04:44:30;;;;;;;4.55;2.50;;;;;;;1.70;87.27;97093.53;4208307;27;20122;-72
2021/12/05 04:46:30;;;;;;;9.57;2.35;;;;;;;1.67;86.97;97086.88;4208528;27;20499;-72
2021/12/05 04:48:31;;;;;;;5.35;2.53;;;;;;;1.71;86.86;97084.22;4208552;27;20192;-71
2021/12/05 04:50:33;;;;;;;5.88;2.65;;;;;;;1.71;86.42;97075.25;4206553;27;20043;-72
2021/12/05 04:52:33;;;;;;;4.60;2.45;;;;;;;1.72;85.89;97079.56;4206807;27;20119;-71
2021/12/05 04:54:33;;;;;;;6.18;3.00;;;;;;;1.73;86.40;97083.84;4207757;27;20175;-71
2021/12/05 04:56:34;;;;;;;4.65;2.20;;;;;;;1.66;86.95;97071.66;4211703;27;20190;-71
2021/12/05 04:58:35;;;;;;;6.88;2.60;;;;;;;1.66;87.20;97073.59;4208870;27;20458;-71
2021/12/05 05:00:42;;;;;;;6.07;2.40;;;;;;;1.72;86.43;97074.09;4208760;27;20032;-71
2021/12/05 05:02:42;;;;;;;6.68;2.45;;;;;;;1.74;85.41;97078.06;4207741;27;20531;-72
2021/12/05 05:04:46;;;;;;;5.60;2.30;;;;;;;1.75;85.67;97071.47;4207809;27;20135;-72
2021/12/05 05:06:46;;;;;;;3.50;2.15;;;;;;;1.77;85.93;97071.91;4209169;27;20036;-72
2021/12/05 05:08:51;;;;;;;4.22;3.03;;;;;;;1.79;85.01;97066.09;4205688;27;20321;-71
2021/12/05 05:10:52;;;;;;;7.72;2.38;;;;;;;1.73;85.59;97070.22;4210422;27;20094;-72
2021/12/05 05:12:52;;;;;;;3.97;2.20;;;;;;;1.68;85.91;97079.47;4204854;27;20040;-72
2021/12/05 05:14:54;;;;;;;4.40;3.03;;;;;;;1.67;86.62;97072.44;4205429;27;20391;-72
2021/12/05 05:16:55;;;;;;;5.17;2.73;;;;;;;1.66;86.78;97088.03;4206480;27;20028;-72
2021/12/05 05:18:57;;;;;;;8.20;2.75;;;;;;;1.59;87.30;97070.69;4208791;27;20491;-72
2021/12/05 05:21:09;;;;;;;2.83;2.33;;;;;;;1.54;87.84;97063.56;4207803;27;20048;-71
2021/12/05 05:23:37;;;;;;;5.15;2.95;;;;;;;1.48;88.38;97073.16;4208070;27;20476;-71
2021/12/05 05:51:51;;;;;;;5.43;2.55;;;;;;;1.26;91.46;97117.38;4205555;27;20138;-71
2021/12/05 05:53:51;;;;;;;6.72;2.38;;;;;;;1.25;91.83;97121.25;4205852;27;20067;-71
2021/12/05 05:55:54;;;;;;;5.88;2.70;;;;;;;1.23;91.86;97129.75;4207969;27;20048;-72
2021/12/05 06:00:10;;;;;;;5.72;2.10;;;;;;;1.22;92.13;97127.38;4208003;27;20043;-71
2021/12/05 06:04:11;;;;;;;3.85;2.15;;;;;;;1.25;92.27;97132.94;4207814;27;20087;-72
2021/12/05 06:06:13;;;;;;;4.38;2.47;;;;;;;1.27;91.97;97132.59;4205197;27;20069;-72
2021/12/05 06:08:13;;;;;;;5.55;2.53;;;;;;;1.31;91.76;97136.97;4207321;27;20090;-71
2021/12/05 06:10:20;;;;;;;5.82;2.55;;;;;;;1.34;91.43;97147.19;4205657;28;20036;-71
2021/12/05 06:12:20;;;;;;;3.00;2.58;;;;;;;1.33;91.85;97142.88;4205693;28;20024;-72
2021/12/05 06:14:21;;;;;;;5.03;2.53;;;;;;;1.35;92.13;97153.44;4206546;28;20511;-72
2021/12/05 06:16:21;;;;;;;3.45;2.35;;;;;;;1.34;91.74;97158.09;4205278;28;20048;-71
2021/12/05 06:18:22;;;;;;;3.88;1.88;;;;;;;1.34;91.53;97163.53;4205059;27;20499;-71
2021/12/05 06:20:26;;;;;;;4.13;2.28;;;;;;;1.36;91.48;97171.38;4206089;28;20036;-71
2021/12/05 06:22:26;;;;;;;4.88;2.35;;;;;;;1.36;91.95;97172.16;4206650;28;20283;-72
2021/12/05 06:24:27;;;;;;;9.32;2.67;;;;;;;1.36;91.71;97174.09;4202571;28;20062;-72
2021/12/05 06:26:27;;;;;;;3.13;2.20;;;;;;;1.35;92.18;97176.03;4206933;28;20472;-72
2021/12/05 06:28:38;;;;;;;4.43;2.22;;;;;;;1.37;92.47;97176.47;4206363;27;20040;-72
2021/12/05 06:30:53;;;;;;;4.45;2.35;;;;;;;1.39;92.04;97176.88;4205495;28;20047;-72
2021/12/05 06:39:46;;;;;;;8.23;2.95;;;;;;;1.45;91.76;97172.00;4210042;28;20037;-71
2021/12/05 06:42:19;;;;;;;7.45;2.45;;;;;;;1.48;91.08;97167.75;4211363;27;20662;-71
2021/12/05 06:46:39;;;;;;;6.65;3.33;;;;;;;1.53;90.42;97171.03;4209601;28;20042;-71
2021/12/05 06:48:42;;;;;;;4.95;2.85;;;;;;;1.58;90.75;97178.16;4205457;28;20128;-72
2021/12/05 06:50:43;;;;;;;6.25;3.13;;;;;;;1.57;91.09;97176.56;4204847;28;20679;-72
2021/12/05 06:52:44;;;;;;;6.03;2.13;;;;;;;1.56;91.27;97186.66;4205511;27;20313;-72
2021/12/05 06:54:45;;;;;;;4.57;2.85;;;;;;;1.58;90.96;97187.13;4206100;28;20505;-72
2021/12/05 06:56:45;;;;;;;5.63;2.63;;;;;;;1.56;90.85;97192.13;4204927;28;20131;-72
2021/12/05 06:58:46;;;;;;;4.88;2.40;;;;;;;1.51;91.53;97192.41;4207150;28;20464;-72
2021/12/05 07:00:46;;;;;;;7.13;3.05;;;;;;;1.54;91.92;97191.69;4212314;27;20044;-72
2021/12/05 07:02:46;;;;;;;8.40;3.55;;;;;;;1.56;91.55;97202.25;4204520;27;20456;-72
2021/12/05 07:07:04;;;;;;;9.02;4.47;;;;;;;1.56;91.62;97202.25;4207479;28;20108;-72
2021/12/05 07:09:06;;;;;;;10.00;3.63;;;;;;;1.60;91.03;97198.47;4206480;28;20047;-72
2021/12/05 07:16:01;;;;;;;6.35;2.90;;;;;;;1.74;90.20;97217.16;4208524;27;20067;-72
2021/12/05 07:20:40;;;;;;;9.50;4.18;;;;;;;1.72;90.00;97215.88;4207574;28;20074;-72
2021/12/05 07:22:58;;;;;;;8.70;4.13;;;;;;;1.73;90.20;97214.75;4205269;28;20408;-72
2021/12/05 07:25:08;;;;;;;7.55;4.60;;;;;;;1.74;89.76;97224.50;4207672;27;20037;-72
2021/12/05 07:40:45;;;;;;;4.10;2.13;;;;;;;1.81;88.65;97232.88;4210121;27;20565;-72
2021/12/05 07:42:46;;;;;;;4.70;1.85;;;;;;;1.93;87.40;97235.53;4212588;27;20032;-72
2021/12/05 07:44:47;;;;;;;3.63;2.60;;;;;;;1.94;87.76;97226.19;4209529;27;20047;-72
2021/12/05 07:46:47;;;;;;;8.55;2.60;;;;;;;1.96;87.78;97226.63;4210283;27;20162;-72
2021/12/05 07:48:48;;;;;;;6.30;2.33;;;;;;;1.97;86.97;97229.00;4215489;27;20421;-72
2021/12/05 07:51:07;;;;;;;4.32;2.17;;;;;;;1.99;87.43;97231.41;4212716;27;20036;-72
2021/12/05 07:53:15;;;;;;;5.82;3.28;;;;;;;2.06;85.39;97219.84;4211432;27;20059;-72
2021/12/05 07:55:25;;;;;;;7.30;3.85;;;;;;;2.09;85.97;97221.91;4215469;27;20131;-72
2021/12/05 07:57:44;;;;;;;5.45;2.65;;;;;;;2.12;86.23;97230.16;4213519;27;20126;-72
2021/12/05 08:00:01;;;;;;;4.30;2.15;;;;;;;2.19;85.43;97233.06;4212004;27;20040;-72
2021/12/05 08:16:01;;;;;;;10.93;2.88;;;;;;;2.12;86.27;97245.75;4208935;27;20046;-72
2021/12/05 08:18:01;;;;;;;9.38;2.90;;;;;;;2.11;86.59;97244.94;4211670;27;20480;-72
2021/12/05 08:20:05;;;;;;;6.20;2.80;;;;;;;2.10;86.05;97232.44;4210467;27;20030;-72
2021/12/05 08:22:05;;;;;;;9.00;2.72;;;;;;;2.17;85.02;97246.28;4205806;27;20024;-72
2021/12/05 08:24:06;;;;;;;4.05;2.38;;;;;;;2.29;83.66;97244.59;4207059;27;20111;-72
2021/12/05 08:26:09;;;;;;;5.78;2.60;;;;;;;2.28;83.64;97232.09;4208566;27;20538;-72
2021/12/05 08:30:26;;;;;;;7.78;4.07;;;;;;;2.35;83.17;97229.53;4205443;27;20077;-72
2021/12/05 08:32:52;;;;;;;15.32;4.88;;;;;;;2.31;84.03;97239.56;4211561;27;20219;-72
2021/12/05 08:35:11;;;;;;;6.50;3.33;;;;;;;2.20;83.60;97240.09;4209142;27;20048;-72
2021/12/05 09:23:52;;;;;;;11.50;3.13;;;;;;;2.39;80.99;97309.56;4208670;27;20036;-72
2021/12/05 09:40:12;;;;;;;7.45;4.43;;;;;;;2.44;80.68;97331.94;4206336;27;20054;-72
2021/12/05 10:14:20;;;;;;;16.45;4.32;;;;;;;2.10;82.81;97343.53;4209011;27;20027;-72
2021/12/05 10:17:27;;;;;;;9.20;3.22;;;;;;;2.03;83.37;97348.78;4208254;27;20081;-72
2021/12/05 10:26:56;;;;;;;6.18;3.03;;;;;;;1.81;85.10;97350.16;4206404;28;20054;-72
2021/12/05 10:34:29;;;;;;;14.02;6.13;;;;;;;2.01;83.17;97346.41;4203655;28;20169;-72
2021/12/05 10:36:29;;;;;;;13.20;5.68;;;;;;;2.11;83.10;97345.13;4210887;28;20047;-72
2021/12/05 10:38:46;;;;;;;11.10;5.47;;;;;;;2.10;82.99;97330.69;4206648;28;20043;-72
2021/12/05 10:41:19;;;;;;;6.22;4.30;;;;;;;2.15;82.49;97337.81;4205398;28;20036;-72
2021/12/05 10:43:24;;;;;;;9.95;4.78;;;;;;;2.23;81.70;97332.19;4204847;28;20101;-72
2021/12/05 10:46:03;;;;;;;8.52;5.82;;;;;;;2.34;81.98;97331.66;4209480;28;20096;-72
2021/12/05 10:48:18;;;;;;;8.48;4.45;;;;;;;2.50;81.53;97335.19;4205164;28;20117;-72
2021/12/05 10:50:41;;;;;;;7.22;3.38;;;;;;;2.68;80.96;97330.16;4206092;28;20025;-72
2021/12/05 10:52:42;;;;;;;;;;;;;;;2.80;80.95;97325.38;4207427;28;20365;-72
2021/12/05 10:54:42;;;;;;;8.45;3.60;;;;;;;2.88;81.00;97326.31;4207019;28;19922;-72
2021/12/05 10:56:53;;;;;;;5.63;3.00;;;;;;;3.00;80.62;97337.16;4204880;27;20286;-72
2021/12/05 10:59:00;;;;;;;8.00;3.53;;;;;;;3.13;79.15;97328.84;4213047;27;20071;-72
2021/12/05 11:01:14;;;;;;;5.40;3.25;;;;;;;3.26;79.32;97325.63;4208554;28;20044;-72
2021/12/05 11:03:16;;;;;;;5.30;2.67;;;;;;;3.52;75.65;97327.72;4205063;28;20132;-72
2021/12/05 11:05:32;;;;;;;;;;;;;;;3.70;73.13;97332.75;4209027;28;20036;-72
2021/12/05 11:07:35;;;;;;;13.23;5.97;;;;;;;3.75;73.50;97336.00;4209658;27;19916;-72
2021/12/05 11:09:47;;;;;;;13.90;5.93;;;;;;;3.74;73.53;97337.16;4211801;27;20397;-72
2021/12/05 11:11:57;;;;;;;12.68;5.72;;;;;;;3.73;72.70;97338.31;4207690;27;20134;-72
2021/12/05 11:14:01;;;;;;;10.73;4.80;;;;;;;3.67;72.81;97334.28;4208242;27;20389;-72
2021/12/05 11:16:02;;;;;;;10.50;4.10;;;;;;;3.64;72.78;97337.72;4209002;27;20051;-72
2021/12/05 11:18:02;;;;;;;9.18;3.60;;;;;;;3.62;73.07;97340.03;4208476;27;20032;-72
2021/12/05 11:20:08;;;;;;;11.57;4.15;;;;;;;3.60;75.05;97332.19;4209180;27;20035;-72
2021/12/05 11:22:17;;;;;;;6.55;3.05;;;;;;;3.63;75.00;97338.88;4216337;27;20035;-72
2021/12/05 11:24:31;;;;;;;6.97;3.25;;;;;;;3.65;74.53;97334.66;4211826;27;20062;-72
2021/12/05 11:26:33;;;;;;;4.28;1.77;;;;;;;3.62;73.84;97340.81;4209532;27;20089;-72
2021/12/05 11:28:33;;;;;;;5.25;2.38;;;;;;;3.67;74.61;97340.53;4209258;27;20057;-72
2021/12/05 11:30:38;;;;;;;5.65;2.20;;;;;;;3.68;74.57;97335.88;4208463;27;20043;-72
2021/12/05 11:32:44;;;;;;;5.65;2.00;;;;;;;3.73;74.72;97343.78;4208812;27;20040;-72
2021/12/05 11:34:45;;;;;;;5.85;2.13;;;;;;;3.76;74.44;97348.53;4209009;27;20036;-72
2021/12/05 11:36:55;;;;;;;4.80;1.95;;;;;;;3.69;74.61;97342.91;4209743;27;20127;-72
2021/12/05 11:38:56;;;;;;;3.30;1.75;;;;;;;3.72;72.99;97350.38;4209240;27;20048;-72
2021/12/05 11:41:06;;;;;;;6.35;1.80;;;;;;;3.65;74.19;97348.31;4211557;27;20400;-72
2021/12/05 11:43:06;;;;;;;5.65;1.80;;;;;;;3.62;73.71;97345.50;4212846;27;20032;-72
2021/12/05 11:45:07;;;;;;;5.43;1.90;;;;;;;3.58;75.23;97345.44;4211908;27;20051;-72
2021/12/05 11:47:18;;;;;;;4.30;2.10;;;;;;;3.57;75.07;97348.53;4208064;27;20131;-72
2021/12/05 11:49:21;;;;;;;5.05;2.38;;;;;;;3.55;74.88;97348.88;4208804;27;20105;-72
2021/12/05 11:51:47;;;;;;;3.55;1.63;;;;;;;3.53;75.00;97353.91;4207070;27;20042;-72
2021/12/05 11:53:59;;;;;;;2.83;1.90;;;;;;;3.50;75.07;97346.44;4209372;27;20269;-72
2021/12/05 11:56:00;;;;;;;3.35;1.60;;;;;;;3.49;76.20;97357.75;4209354;27;20044;-72
2021/12/05 11:58:01;;;;;;;2.78;1.60;;;;;;;3.48;76.20;97350.69;4207079;27;20507;-72
2021/12/05 12:00:17;;;;;;;3.97;1.73;;;;;;;3.48;76.18;97353.44;4212425;28;20064;-72
2021/12/05 12:02:25;;;;;;;6.45;1.60;;;;;;;3.49;75.30;97352.28;4213980;27;20424;-72
2021/12/05 12:04:46;;;;;;;5.28;2.15;;;;;;;3.50;74.80;97351.13;4208354;27;20036;-72
2021/12/05 12:07:19;;;;;;;4.03;2.10;;;;;;;3.52;74.82;97351.56;4213866;27;20071;-72
2021/12/05 12:09:19;;;;;;;4.47;2.10;;;;;;;3.50;76.65;97353.84;4212628;27;20040;-72
2021/12/05 12:11:20;;;;;;;4.63;2.28;;;;;;;3.47;76.40;97360.81;4211651;27;20505;-72
2021/12/05 12:13:24;;;;;;;3.45;2.25;;;;;;;3.49;76.43;97358.53;4211177;27;20087;-72
2021/12/05 12:15:27;;;;;;;6.90;2.30;;;;;;;3.53;76.15;97356.66;4210117;27;20031;-72
2021/12/05 12:17:27;;;;;;;3.35;1.65;;;;;;;3.50;75.95;97362.84;4208965;27;20038;-72
2021/12/05 12:19:28;;;;;;;2.30;1.83;;;;;;;3.50;75.93;97348.38;4208174;27;20042;-72
2021/12/05 12:21:41;;;;;;;3.22;1.70;;;;;;;3.51;76.08;97358.97;4210175;27;20419;-72
2021/12/05 12:23:42;;;;;;;2.00;1.65;;;;;;;3.47;75.86;97352.63;4206225;27;20028;-72
2021/12/05 12:25:45;;;;;;;3.15;1.70;;;;;;;3.43;75.46;97357.22;4212682;27;20476;-72
2021/12/05 12:27:48;;;;;;;3.85;1.95;;;;;;;3.40;76.11;97359.91;4213825;27;20032;-72
2021/12/05 12:29:52;;;;;;;4.18;1.67;;;;;;;3.37;76.13;97361.38;4209236;27;20036;-72
2021/12/05 12:32:00;;;;;;;4.60;1.67;;;;;;;3.32;76.77;97362.47;4213558;27;20036;-72
2021/12/05 12:34:10;;;;;;;4.55;2.08;;;;;;;3.30;77.40;97366.69;4214000;27;20302;-72
2021/12/05 12:36:10;;;;;;;3.97;1.50;;;;;;;3.28;77.32;97363.53;4212865;27;20026;-72
2021/12/05 12:38:14;;;;;;;2.42;1.50;;;;;;;3.24;77.54;97355.28;4210709;27;20111;-72
2021/12/05 12:40:14;;;;;;;2.10;1.65;;;;;;;3.25;76.63;97367.78;4214774;27;20363;-72
2021/12/05 12:42:28;;;;;;;1.83;1.30;;;;;;;3.24;76.38;97363.47;4210290;27;20039;-73
2021/12/05 12:44:30;;;;;;;3.60;1.50;;;;;;;3.25;76.69;97365.06;4211661;27;20032;-72
2021/12/05 12:46:36;;;;;;;2.88;1.60;;;;;;;3.29;77.24;97374.09;4214210;27;20078;-72
2021/12/05 12:48:36;;;;;;;3.83;1.50;;;;;;;3.26;77.89;97380.28;4210654;27;20073;-72
2021/12/05 12:50:51;;;;;;;3.35;1.40;;;;;;;3.22;77.95;97375.88;4210365;27;20356;-72
2021/12/05 12:53:17;;;;;;;4.25;1.77;;;;;;;3.23;78.26;97386.50;4211847;27;20040;-72
2021/12/05 12:55:17;;;;;;;4.88;1.70;;;;;;;3.21;78.35;97393.44;4209968;27;20032;-72
2021/12/05 12:57:19;;;;;;;2.60;1.15;;;;;;;3.21;78.30;97394.22;4208721;27;20048;-72
2021/12/05 12:59:27;;;;;;;3.25;1.48;;;;;;;3.19;78.58;97384.81;4209219;27;20032;-72
2021/12/05 13:02:14;;;;;;;3.35;1.48;;;;;;;3.20;78.91;97389.13;4209250;27;20083;-72
2021/12/05 13:07:22;;;;;;;3.75;1.60;;;;;;;3.18;78.07;97385.97;4208890;27;20040;-72
2021/12/05 13:11:21;;;;;;;4.00;1.83;;;;;;;3.18;78.42;97400.41;4210675;27;20717;-72
2021/12/05 13:13:26;;;;;;;2.75;1.90;;;;;;;3.14;78.61;97399.53;4214130;27;20243;-72
2021/12/05 13:15:49;;;;;;;2.25;1.50;;;;;;;3.15;78.31;97400.34;4209269;27;20031;-72
2021/12/05 13:17:53;;;;;;;1.92;1.50;;;;;;;3.12;78.36;97401.84;4212874;27;20707;-72
2021/12/05 13:19:59;;;;;;;3.95;2.30;;;;;;;3.13;78.97;97402.63;4215826;27;20065;-72
2021/12/05 13:22:06;;;;;;;7.22;4.50;;;;;;;3.11;79.24;97405.72;4207906;27;20483;-72
2021/12/05 13:24:29;;;;;;;10.48;5.03;;;;;;;3.09;79.47;97403.34;4213669;27;20110;-72
2021/12/05 13:26:33;;;;;;;;;;;;;;;3.10;78.87;97404.13;4213397;27;20499;-72
2021/12/05 13:28:40;;;;;;;28.77;13.60;;;;;;;3.09;79.09;97406.06;4213937;27;20178;-72
2021/12/05 13:30:43;;;;;;;19.88;11.43;;;;;;;3.09;78.86;97410.75;4210234;27;20125;-72
2021/12/05 13:32:44;;;;;;;16.65;9.30;;;;;;;3.07;78.98;97413.84;4210351;28;20136;-72
2021/12/05 13:34:49;;;;;;;15.57;7.85;;;;;;;3.07;79.31;97404.84;4208327;27;20186;-72
2021/12/05 13:37:00;;;;;;;11.73;7.05;;;;;;;3.08;79.23;97411.91;4209116;27;20043;-72
2021/12/05 13:39:00;;;;;;;10.73;5.55;;;;;;;3.08;79.34;97411.91;4208058;27;20102;-72
2021/12/05 13:41:15;;;;;;;6.47;4.55;;;;;;;3.07;79.37;97415.78;4208112;27;20451;-72
2021/12/05 13:43:27;;;;;;;8.77;3.28;;;;;;;3.08;78.79;97409.16;4206731;27;20062;-72
2021/12/05 13:45:27;;;;;;;3.88;2.17;;;;;;;3.07;78.87;97419.31;4208951;27;20101;-72
2021/12/05 13:47:48;;;;;;;4.55;2.42;;;;;;;3.07;78.47;97415.78;4210395;27;20415;-72
2021/12/05 13:49:49;;;;;;;4.32;2.40;;;;;;;3.04;78.26;97414.53;4208716;27;20035;-72
2021/12/05 13:51:49;;;;;;;5.60;1.92;;;;;;;3.02;78.34;97416.84;4207373;27;20036;-72
2021/12/05 13:53:52;;;;;;;2.85;1.83;;;;;;;3.04;77.83;97421.94;4207932;27;20514;-72
2021/12/05 13:56:02;;;;;;;3.58;2.03;;;;;;;3.06;77.41;97425.09;4203326;28;20125;-72
2021/12/05 13:58:34;;;;;;;2.58;1.83;;;;;;;3.05;78.12;97421.59;4208576;28;20047;-72
2021/12/05 14:00:39;;;;;;;5.63;2.53;;;;;;;3.02;77.82;97421.50;4209561;27;20047;-72
2021/12/05 14:02:51;;;;;;;4.22;2.53;;;;;;;3.01;78.17;97428.13;4205991;27;20043;-72
2021/12/05 14:04:51;;;;;;;3.55;2.20;;;;;;;3.01;78.34;97428.13;4204952;27;20044;-72
2021/12/05 14:07:01;;;;;;;4.68;2.72;;;;;;;2.99;77.99;97433.94;4205225;27;20452;-72
2021/12/05 14:09:14;;;;;;;8.68;3.35;;;;;;;2.97;77.98;97430.75;4204565;27;20119;-72
2021/12/05 14:11:14;;;;;;;3.83;2.25;;;;;;;2.95;78.32;97435.78;4209203;27;20051;-72
2021/12/05 14:13:14;;;;;;;5.90;2.50;;;;;;;2.98;77.59;97442.47;4209875;28;20063;-72
2021/12/05 14:15:15;;;;;;;5.75;2.47;;;;;;;2.94;77.69;97439.66;4205721;27;20117;-72
2021/12/05 14:17:23;;;;;;;5.63;3.00;;;;;;;2.93;77.75;97440.03;4207407;27;20126;-72
2021/12/05 14:19:27;;;;;;;5.28;2.90;;;;;;;2.87;78.12;97444.97;4205360;27;20050;-72
2021/12/05 14:21:28;;;;;;;6.18;3.35;;;;;;;2.89;77.77;97450.84;4203774;28;20378;-72
2021/12/05 14:23:28;;;;;;;7.70;4.38;;;;;;;2.91;77.78;97450.53;4209831;27;20039;-72
2021/12/05 14:25:32;;;;;;;7.38;5.90;;;;;;;2.90;77.59;97455.19;4211135;28;20051;-72
2021/12/05 14:27:39;;;;;;;7.97;4.10;;;;;;;2.87;77.89;97449.63;4204396;28;20051;-72
2021/12/05 14:29:41;;;;;;;7.35;4.93;;;;;;;2.86;77.84;97458.97;4204633;28;20097;-72
2021/12/05 14:31:46;;;;;;;6.53;4.75;;;;;;;2.79;78.36;97452.19;4206405;28;20511;-72
2021/12/05 14:33:50;;;;;;;7.30;4.32;;;;;;;2.79;78.28;97452.19;4206113;28;20044;-72
2021/12/05 14:35:50;;;;;;;7.97;4.28;;;;;;;2.77;78.49;97454.47;4206240;28;20313;-72
2021/12/05 14:37:52;;;;;;;6.22;3.90;;;;;;;2.75;78.86;97461.44;4206642;28;20079;-72
2021/12/05 14:39:58;;;;;;;6.43;3.45;;;;;;;2.72;79.23;97459.41;4206594;28;20043;-72
2021/12/05 14:42:02;;;;;;;5.43;3.35;;;;;;;2.69;79.69;97465.56;4208240;27;20055;-72
2021/12/05 14:44:03;;;;;;;5.30;3.40;;;;;;;2.67;79.98;97474.13;4208656;28;20036;-72
2021/12/05 14:46:04;;;;;;;9.15;5.38;;;;;;;2.66;80.03;97478.00;4211877;27;20506;-72
2021/12/05 14:48:22;;;;;;;7.88;4.97;;;;;;;2.64;80.46;97479.47;4208062;27;20024;-72
2021/12/05 14:50:27;;;;;;;10.15;5.47;;;;;;;2.60;80.22;97482.13;4210301;27;20042;-72
2021/12/05 14:52:31;;;;;;;12.73;8.13;;;;;;;2.61;80.14;97482.91;4210906;27;20130;-72
2021/12/05 14:54:36;;;;;;;14.55;9.20;;;;;;;2.60;80.32;97492.25;4209474;27;20108;-72
2021/12/05 14:56:38;;;;;;;17.05;10.05;;;;;;;2.60;80.68;97498.50;4208362;27;20051;-72
2021/12/05 14:58:41;;;;;;;;;;;;;;;2.58;80.54;97503.53;4208933;27;20436;-72
2021/12/05 15:00:51;;;;;;;12.02;8.07;;;;;;;2.54;80.88;97497.16;4212610;27;19963;-72
2021/12/05 15:03:15;;;;;;;16.20;11.05;;;;;;;2.53;82.35;97509.22;4209400;27;20066;-72
2021/12/05 15:05:18;;;;;;;15.82;10.48;;;;;;;2.49;82.45;97505.63;4209221;27;20063;-72